Time;durP1;ratioP1;P1;durP2;ratioP2;P2;SDS_P1;SDS_P2;PMS_P1;PMS_P2;Temp;Humidity;BMP_temperature;BMP_pressure;BME280_temperature;BME280_humidity;BME280_pressure;Samples;Min_cycle;Max_cycle;Signal;HPM_P1;HPM_P2
2022/12/21 00:01:35;;;;;;;25.33;3.50;;;;;;;;;;6268872;22;20026;-61
2022/12/21 00:04:03;;;;;;;38.60;4.25;;;;;;;;;;6269239;22;20026;-61
2022/12/21 00:06:37;;;;;;;33.47;3.88;;;;;;;;;;6268354;22;20055;-47
2022/12/21 00:09:06;;;;;;;42.88;4.07;;;;;;;;;;6268989;22;20564;-49
2022/12/21 00:11:35;;;;;;;34.08;4.70;;;;;;;;;;6268327;22;20047;-51
2022/12/21 00:14:09;;;;;;;29.40;4.03;;;;;;;;;;6268377;22;20098;-52
2022/12/21 00:16:37;;;;;;;27.23;3.92;;;;;;;;;;6266075;22;20035;-49
2022/12/21 00:19:23;;;;;;;31.27;3.92;;;;;;;;;;6268469;22;20019;-49
2022/12/21 00:21:57;;;;;;;27.02;3.88;;;;;;;;;;6269018;22;20073;-49
2022/12/21 00:24:32;;;;;;;40.85;4.45;;;;;;;;;;6268772;22;20026;-61
2022/12/21 00:26:59;;;;;;;;;;;;;;;;;;6268641;22;20035;-61
2022/12/21 00:29:26;;;;;;;39.50;4.22;;;;;;;;;;6268725;22;19961;-62
2022/12/21 00:31:59;;;;;;;36.67;5.25;;;;;;;;;;6269147;22;20050;-62
2022/12/21 00:34:26;;;;;;;49.65;5.95;;;;;;;;;;6267505;22;20102;-62
2022/12/21 00:36:54;;;;;;;34.08;4.03;;;;;;;;;;6268542;22;20070;-62
2022/12/21 00:39:28;;;;;;;40.03;4.82;;;;;;;;;;6269668;22;20571;-63
2022/12/21 00:41:55;;;;;;;31.58;3.67;;;;;;;;;;6268288;22;20019;-62
2022/12/21 00:44:29;;;;;;;47.65;4.22;;;;;;;;;;6268443;22;20545;-49
2022/12/21 00:46:56;;;;;;;40.63;3.92;;;;;;;;;;6268751;22;20138;-47
2022/12/21 00:49:23;;;;;;;42.58;4.28;;;;;;;;;;6268007;22;20022;-49
2022/12/21 00:51:57;;;;;;;45.78;4.32;;;;;;;;;;6268460;22;20062;-48
2022/12/21 00:54:24;;;;;;;43.05;4.22;;;;;;;;;;6269042;22;20103;-47
2022/12/21 00:56:58;;;;;;;47.33;5.03;;;;;;;;;;6269268;22;20094;-50
2022/12/21 00:59:25;;;;;;;37.83;4.35;;;;;;;;;;6270276;22;20019;-46
2022/12/21 01:01:53;;;;;;;33.53;4.45;;;;;;;;;;6267632;22;20019;-49
2022/12/21 01:04:26;;;;;;;49.20;5.32;;;;;;;;;;6269287;22;20054;-47
2022/12/21 01:06:54;;;;;;;48.33;4.70;;;;;;;;;;6267996;22;20024;-47
2022/12/21 01:09:28;;;;;;;35.08;4.75;;;;;;;;;;6265777;22;20026;-49
2022/12/21 01:11:55;;;;;;;35.78;4.07;;;;;;;;;;6267277;22;20099;-49
2022/12/21 01:14:22;;;;;;;37.05;4.43;;;;;;;;;;6270071;22;20126;-48
2022/12/21 01:16:56;;;;;;;41.38;4.55;;;;;;;;;;6268136;22;20027;-54
2022/12/21 01:19:23;;;;;;;51.78;5.28;;;;;;;;;;6268181;22;20489;-49
2022/12/21 01:22:03;;;;;;;31.60;4.35;;;;;;;;;;6268522;22;20030;-62
2022/12/21 01:24:30;;;;;;;51.70;5.32;;;;;;;;;;6269575;22;20051;-63
2022/12/21 01:27:04;;;;;;;51.55;5.60;;;;;;;;;;6267631;22;20373;-63
2022/12/21 01:29:31;;;;;;;57.38;5.43;;;;;;;;;;6268191;22;20023;-62
2022/12/21 01:31:59;;;;;;;40.75;4.55;;;;;;;;;;6270367;22;20022;-62
2022/12/21 01:34:32;;;;;;;48.90;5.57;;;;;;;;;;6271060;22;20107;-62
2022/12/21 01:37:00;;;;;;;42.13;4.80;;;;;;;;;;6269930;22;20538;-62
2022/12/21 01:39:29;;;;;;;62.25;6.65;;;;;;;;;;6270626;22;20026;-61
2022/12/21 01:42:02;;;;;;;48.83;5.10;;;;;;;;;;6271046;22;20019;-63
2022/12/21 01:44:51;;;;;;;58.95;6.00;;;;;;;;;;6269916;22;20024;-63
2022/12/21 01:47:29;;;;;;;43.10;4.57;;;;;;;;;;6245829;22;20451;-63
2022/12/21 01:50:00;;;;;;;43.03;4.70;;;;;;;;;;6271091;22;20260;-63
2022/12/21 01:52:33;;;;;;;35.15;4.43;;;;;;;;;;6269548;22;20094;-63
2022/12/21 01:55:02;;;;;;;42.67;5.03;;;;;;;;;;6269677;22;20030;-65
2022/12/21 01:57:43;;;;;;;52.10;4.97;;;;;;;;;;6270086;22;20034;-49
2022/12/21 02:00:23;;;;;;;42.45;5.60;;;;;;;;;;6270378;22;20397;-61
2022/12/21 02:02:59;;;;;;;41.25;4.80;;;;;;;;;;6268678;22;20110;-59
2022/12/21 02:05:30;;;;;;;62.88;5.63;;;;;;;;;;6271018;22;20085;-60
2022/12/21 02:07:58;;;;;;;55.03;5.13;;;;;;;;;;6268171;22;20098;-61
2022/12/21 02:10:33;;;;;;;45.97;6.00;;;;;;;;;;6269956;22;20484;-61
2022/12/21 02:13:00;;;;;;;;;;;;;;;;;;6269473;22;20413;-57
2022/12/21 02:15:41;;;;;;;52.45;4.82;;;;;;;;;;6271656;22;19930;-62
2022/12/21 02:18:11;;;;;;;52.67;5.43;;;;;;;;;;6269779;22;20495;-50
2022/12/21 02:21:08;;;;;;;53.80;6.40;;;;;;;;;;6266604;22;20098;-50
2022/12/21 02:23:45;;;;;;;56.88;6.35;;;;;;;;;;6270330;22;20099;-47
2022/12/21 02:26:33;;;;;;;42.13;5.22;;;;;;;;;;6270508;22;20054;-52
2022/12/21 02:29:19;;;;;;;48.22;5.05;;;;;;;;;;6270007;22;20439;-50
2022/12/21 02:32:05;;;;;;;40.20;5.20;;;;;;;;;;6268928;22;20138;-50
2022/12/21 02:34:47;;;;;;;50.78;5.50;;;;;;;;;;6270221;22;20106;-61
2022/12/21 02:37:24;;;;;;;55.65;6.40;;;;;;;;;;6270463;22;20479;-59
2022/12/21 02:39:58;;;;;;;42.28;5.35;;;;;;;;;;6269457;22;20094;-57
2022/12/21 02:45:43;;;;;;;44.28;6.18;;;;;;;;;;6269413;22;20099;-59
2022/12/21 02:48:24;;;;;;;51.58;7.22;;;;;;;;;;6269753;22;20027;-60
2022/12/21 02:50:54;;;;;;;51.60;7.55;;;;;;;;;;6268506;22;20098;-60
2022/12/21 02:53:31;;;;;;;57.40;6.78;;;;;;;;;;6269464;22;20499;-63
2022/12/21 02:55:58;;;;;;;51.67;6.82;;;;;;;;;;6269775;22;20102;-62
2022/12/21 02:58:25;;;;;;;56.45;7.90;;;;;;;;;;6270475;22;20058;-61
2022/12/21 03:01:14;;;;;;;57.10;7.40;;;;;;;;;;6269937;22;20135;-61
2022/12/21 03:03:57;;;;;;;50.47;7.20;;;;;;;;;;6268709;22;20023;-61
2022/12/21 03:06:27;;;;;;;52.38;6.82;;;;;;;;;;6269544;22;20547;-62
2022/12/21 03:09:06;;;;;;;49.75;6.55;;;;;;;;;;6270070;22;20425;-61
2022/12/21 03:11:59;;;;;;;82.57;7.63;;;;;;;;;;6269658;22;20023;-60
2022/12/21 03:14:39;;;;;;;61.97;7.60;;;;;;;;;;6269816;22;20360;-60
2022/12/21 03:17:27;;;;;;;70.20;7.13;;;;;;;;;;6269059;22;20026;-59
2022/12/21 03:20:13;;;;;;;66.95;7.85;;;;;;;;;;6268306;22;20098;-54
2022/12/21 03:23:14;;;;;;;61.60;7.43;;;;;;;;;;6269701;22;20101;-61
2022/12/21 03:25:54;;;;;;;83.68;8.52;;;;;;;;;;6268529;22;20030;-59
2022/12/21 03:28:25;;;;;;;61.55;8.32;;;;;;;;;;6270686;22;20044;-60
2022/12/21 03:31:01;;;;;;;66.37;7.70;;;;;;;;;;6268703;22;20059;-59
2022/12/21 03:33:31;;;;;;;55.47;7.30;;;;;;;;;;6269953;22;20073;-61
2022/12/21 03:35:58;;;;;;;61.90;7.93;;;;;;;;;;6270574;22;20020;-61
2022/12/21 03:38:31;;;;;;;62.55;8.27;;;;;;;;;;6269351;22;20054;-61
2022/12/21 03:41:01;;;;;;;72.32;9.52;;;;;;;;;;6269351;22;20102;-61
2022/12/21 03:43:35;;;;;;;69.85;8.95;;;;;;;;;;6269198;22;20704;-61
2022/12/21 03:46:08;;;;;;;70.93;9.63;;;;;;;;;;6269117;22;20094;-61
2022/12/21 03:48:43;;;;;;;64.50;8.98;;;;;;;;;;6270671;22;20024;-53
2022/12/21 03:51:15;;;;;;;62.63;9.80;;;;;;;;;;6270484;22;20016;-63
2022/12/21 03:53:46;;;;;;;64.05;9.95;;;;;;;;;;6269660;22;20023;-63
2022/12/21 03:56:24;;;;;;;66.55;9.50;;;;;;;;;;6269979;22;20030;-64
2022/12/21 03:58:51;;;;;;;72.00;10.52;;;;;;;;;;6269888;22;20026;-63
2022/12/21 04:01:38;;;;;;;60.35;7.93;;;;;;;;;;6268505;22;20024;-63
2022/12/21 04:04:09;;;;;;;63.72;8.75;;;;;;;;;;6269669;22;20027;-63
2022/12/21 04:06:44;;;;;;;72.70;9.60;;;;;;;;;;6269051;22;20051;-61
2022/12/21 04:09:12;;;;;;;74.82;10.35;;;;;;;;;;6269302;22;20099;-61
2022/12/21 04:14:31;;;;;;;65.63;11.05;;;;;;;;;;6269374;22;20047;-62
2022/12/21 04:17:06;;;;;;;56.08;10.07;;;;;;;;;;6268386;22;20027;-61
2022/12/21 04:28:32;;;;;;;72.75;11.63;;;;;;;;;;6175069;23;20100;-49
2022/12/21 04:31:16;;;;;;;72.20;10.95;;;;;;;;;;6246215;22;20070;-49
2022/12/21 04:33:44;;;;;;;69.47;12.88;;;;;;;;;;6269086;22;20027;-47
2022/12/21 04:39:03;;;;;;;81.65;13.90;;;;;;;;;;6268585;22;20298;-51
2022/12/21 04:41:38;;;;;;;79.22;12.95;;;;;;;;;;6268138;22;20757;-61
2022/12/21 04:44:05;;;;;;;69.95;12.77;;;;;;;;;;6269126;22;20034;-61
2022/12/21 04:46:32;;;;;;;84.07;13.38;;;;;;;;;;6268060;22;20058;-62
2022/12/21 04:49:06;;;;;;;85.07;14.52;;;;;;;;;;6267921;22;20055;-61
2022/12/21 04:51:33;;;;;;;80.53;14.55;;;;;;;;;;6266845;22;20126;-61
2022/12/21 04:54:02;;;;;;;74.53;13.65;;;;;;;;;;6268306;22;20095;-62
2022/12/21 04:56:35;;;;;;;69.70;12.73;;;;;;;;;;6267696;22;20091;-61
2022/12/21 04:59:02;;;;;;;95.72;14.98;;;;;;;;;;6266961;22;20105;-61
2022/12/21 05:01:37;;;;;;;81.82;14.68;;;;;;;;;;6267335;22;20019;-62
2022/12/21 05:04:11;;;;;;;87.57;14.48;;;;;;;;;;6267426;22;20473;-48
2022/12/21 05:06:45;;;;;;;78.70;14.23;;;;;;;;;;6268760;22;20098;-48
2022/12/21 05:09:18;;;;;;;77.22;13.27;;;;;;;;;;6268834;22;20560;-47
2022/12/21 05:11:44;;;;;;;77.43;15.18;;;;;;;;;;6268341;22;20035;-47
2022/12/21 05:14:12;;;;;;;74.03;13.32;;;;;;;;;;6268625;22;20102;-48
2022/12/21 05:16:45;;;;;;;79.15;13.90;;;;;;;;;;6266966;22;20429;-51
2022/12/21 05:19:13;;;;;;;77.13;14.43;;;;;;;;;;6267516;22;20023;-61
2022/12/21 05:21:53;;;;;;;80.47;14.15;;;;;;;;;;6266741;22;20523;-62
2022/12/21 05:24:20;;;;;;;100.43;16.15;;;;;;;;;;6267798;22;20421;-62
2022/12/21 05:26:55;;;;;;;88.15;16.13;;;;;;;;;;6267697;22;20038;-63
2022/12/21 05:29:22;;;;;;;83.03;14.88;;;;;;;;;;6266844;22;20055;-63
2022/12/21 05:31:49;;;;;;;84.03;15.23;;;;;;;;;;6267663;22;20055;-63
2022/12/21 05:34:23;;;;;;;84.13;13.90;;;;;;;;;;6267627;22;20020;-62
2022/12/21 05:36:50;;;;;;;;;;;;;;;;;;6268942;22;20055;-60
2022/12/21 05:39:23;;;;;;;84.38;13.80;;;;;;;;;;6267366;22;20427;-47
2022/12/21 05:41:50;;;;;;;83.38;14.55;;;;;;;;;;6266593;22;20030;-60
2022/12/21 05:44:18;;;;;;;88.03;13.38;;;;;;;;;;6268420;22;20095;-59
2022/12/21 05:46:51;;;;;;;83.18;13.48;;;;;;;;;;6259277;22;20030;-60
2022/12/21 05:49:19;;;;;;;77.78;14.35;;;;;;;;;;6266366;22;20047;-60
2022/12/21 05:51:52;;;;;;;70.65;12.27;;;;;;;;;;6262532;22;20024;-60
2022/12/21 05:54:19;;;;;;;67.13;13.32;;;;;;;;;;6265052;22;20103;-60
2022/12/21 05:56:53;;;;;;;59.92;11.57;;;;;;;;;;6262775;22;20416;-60
2022/12/21 05:59:20;;;;;;;76.35;13.05;;;;;;;;;;6264509;22;20453;-55
2022/12/21 06:01:48;;;;;;;77.05;11.77;;;;;;;;;;6267053;22;20414;-54
2022/12/21 06:04:22;;;;;;;70.13;12.57;;;;;;;;;;6268010;22;20067;-55
2022/12/21 06:06:49;;;;;;;93.72;11.50;;;;;;;;;;6268390;22;20098;-54
2022/12/21 06:09:23;;;;;;;58.72;10.52;;;;;;;;;;6268283;22;20059;-55
2022/12/21 06:11:50;;;;;;;66.63;11.55;;;;;;;;;;6267706;22;20111;-51
2022/12/21 06:14:17;;;;;;;71.82;10.52;;;;;;;;;;6268185;22;20063;-48
2022/12/21 06:16:50;;;;;;;69.57;10.60;;;;;;;;;;6267863;22;20054;-61
2022/12/21 06:19:18;;;;;;;71.55;11.05;;;;;;;;;;6269464;22;20033;-62
2022/12/21 06:21:58;;;;;;;71.57;10.65;;;;;;;;;;6267890;22;20020;-60
2022/12/21 06:24:25;;;;;;;81.88;11.88;;;;;;;;;;6270487;22;20030;-61
2022/12/21 06:26:58;;;;;;;79.95;11.32;;;;;;;;;;6270045;22;20092;-62
2022/12/21 06:29:26;;;;;;;88.97;10.82;;;;;;;;;;6270357;22;20027;-62
2022/12/21 06:31:53;;;;;;;75.35;10.48;;;;;;;;;;6270177;22;20406;-61
2022/12/21 06:34:26;;;;;;;79.18;10.23;;;;;;;;;;6270339;22;20326;-62
2022/12/21 06:36:54;;;;;;;92.35;10.98;;;;;;;;;;6269598;22;20020;-62
2022/12/21 06:39:28;;;;;;;98.32;11.32;;;;;;;;;;6270119;22;20114;-61
2022/12/21 06:41:55;;;;;;;70.60;10.02;;;;;;;;;;6268989;22;20028;-62
2022/12/21 06:44:22;;;;;;;;;;;;;;;;;;6270087;22;20402;-61
2022/12/21 06:46:55;;;;;;;72.45;9.95;;;;;;;;;;6270163;22;19925;-61
2022/12/21 06:49:23;;;;;;;84.80;11.05;;;;;;;;;;6269853;22;20392;-61
2022/12/21 06:51:57;;;;;;;89.25;11.52;;;;;;;;;;6268459;22;20432;-64
2022/12/21 06:54:24;;;;;;;84.32;11.73;;;;;;;;;;6269330;22;20055;-64
2022/12/21 06:56:51;;;;;;;78.47;10.40;;;;;;;;;;6242346;22;20034;-63
2022/12/21 06:59:24;;;;;;;79.10;10.30;;;;;;;;;;6269600;22;20045;-63
2022/12/21 07:01:52;;;;;;;89.85;11.25;;;;;;;;;;6270017;22;20385;-63
2022/12/21 07:04:26;;;;;;;83.38;10.63;;;;;;;;;;6269350;22;20046;-64
2022/12/21 07:06:53;;;;;;;72.07;10.50;;;;;;;;;;6269839;22;20051;-64
2022/12/21 07:09:20;;;;;;;89.38;13.48;;;;;;;;;;6269942;22;20410;-62
2022/12/21 07:11:54;;;;;;;61.60;9.50;;;;;;;;;;6268671;22;20530;-62
2022/12/21 07:14:21;;;;;;;72.07;10.73;;;;;;;;;;6268578;22;20106;-62
2022/12/21 07:16:55;;;;;;;73.50;10.10;;;;;;;;;;6269760;22;20095;-62
2022/12/21 07:19:22;;;;;;;83.18;11.13;;;;;;;;;;6268975;22;20102;-62
2022/12/21 07:21:49;;;;;;;77.15;10.77;;;;;;;;;;6268522;22;20070;-62
2022/12/21 07:24:29;;;;;;;84.68;10.35;;;;;;;;;;6269664;22;20102;-62
2022/12/21 07:26:57;;;;;;;81.80;10.18;;;;;;;;;;6269360;22;20099;-49
2022/12/21 07:29:31;;;;;;;75.05;9.73;;;;;;;;;;6269080;22;20020;-61
2022/12/21 07:31:58;;;;;;;72.60;9.05;;;;;;;;;;6269043;22;20058;-61
2022/12/21 07:34:25;;;;;;;61.30;9.27;;;;;;;;;;6270483;22;20023;-62
2022/12/21 07:36:59;;;;;;;71.93;9.23;;;;;;;;;;6267825;22;20414;-62
2022/12/21 07:39:26;;;;;;;83.50;9.60;;;;;;;;;;6270002;22;20111;-62
2022/12/21 07:41:53;;;;;;;76.70;9.63;;;;;;;;;;6268914;22;20563;-62
2022/12/21 07:44:27;;;;;;;59.83;7.97;;;;;;;;;;6269166;22;20023;-61
2022/12/21 07:46:54;;;;;;;62.63;8.18;;;;;;;;;;6269199;22;20130;-63
2022/12/21 07:49:21;;;;;;;79.28;9.25;;;;;;;;;;6269870;22;20023;-63
2022/12/21 07:51:54;;;;;;;59.47;8.60;;;;;;;;;;6268532;22;20034;-62
2022/12/21 07:54:23;;;;;;;70.63;8.98;;;;;;;;;;6269604;22;20070;-62
2022/12/21 07:56:57;;;;;;;79.45;9.27;;;;;;;;;;6269353;22;20051;-62
2022/12/21 07:59:24;;;;;;;61.97;8.85;;;;;;;;;;6269935;22;20030;-62
2022/12/21 08:01:51;;;;;;;65.15;9.73;;;;;;;;;;6270049;22;20028;-62
2022/12/21 08:04:25;;;;;;;69.47;9.52;;;;;;;;;;6270336;22;20178;-64
2022/12/21 08:06:52;;;;;;;61.47;8.65;;;;;;;;;;6270648;22;20019;-62
2022/12/21 08:09:25;;;;;;;52.03;7.80;;;;;;;;;;6271277;22;20095;-62
2022/12/21 08:11:53;;;;;;;73.40;9.27;;;;;;;;;;6269188;22;20020;-62
2022/12/21 08:14:27;;;;;;;60.10;8.23;;;;;;;;;;6268895;22;20045;-63
2022/12/21 08:16:54;;;;;;;62.00;8.93;;;;;;;;;;6270200;22;20118;-62
2022/12/21 08:19:21;;;;;;;;;;;;;;;;;;6269404;22;20027;-62
2022/12/21 08:22:01;;;;;;;57.30;9.85;;;;;;;;;;6269431;22;19919;-50
2022/12/21 08:24:28;;;;;;;54.08;7.95;;;;;;;;;;6243003;22;20065;-62
2022/12/21 08:27:03;;;;;;;59.10;8.77;;;;;;;;;;6269042;22;20046;-61
2022/12/21 08:29:30;;;;;;;73.53;10.18;;;;;;;;;;6269974;22;20548;-62
2022/12/21 08:31:57;;;;;;;64.32;9.73;;;;;;;;;;6269018;22;20043;-61
2022/12/21 08:34:31;;;;;;;74.43;9.32;;;;;;;;;;6269454;22;20063;-61
2022/12/21 08:36:58;;;;;;;69.80;8.88;;;;;;;;;;6269246;22;20019;-61
2022/12/21 08:39:25;;;;;;;65.93;8.88;;;;;;;;;;6269805;22;20415;-62
2022/12/21 08:41:58;;;;;;;59.25;9.10;;;;;;;;;;6269202;22;20090;-59
2022/12/21 08:44:26;;;;;;;70.50;8.35;;;;;;;;;;6269226;22;20106;-64
2022/12/21 08:46:53;;;;;;;63.47;9.27;;;;;;;;;;6269705;22;20126;-64
2022/12/21 08:49:26;;;;;;;56.17;7.57;;;;;;;;;;6268534;22;20742;-64
2022/12/21 08:51:54;;;;;;;65.63;9.25;;;;;;;;;;6268464;22;20095;-64
2022/12/21 08:54:27;;;;;;;63.33;8.75;;;;;;;;;;6268832;22;20026;-63
2022/12/21 08:56:55;;;;;;;59.53;8.13;;;;;;;;;;6268998;22;20094;-64
2022/12/21 08:59:29;;;;;;;59.45;7.60;;;;;;;;;;6269150;22;20023;-47
2022/12/21 09:01:56;;;;;;;67.05;9.20;;;;;;;;;;6268391;22;20077;-61
2022/12/21 09:04:23;;;;;;;64.00;9.43;;;;;;;;;;6267606;22;20068;-58
2022/12/21 09:06:56;;;;;;;74.60;8.40;;;;;;;;;;6268894;22;20527;-57
2022/12/21 09:09:24;;;;;;;68.80;8.40;;;;;;;;;;6269668;22;20349;-61
2022/12/21 09:11:57;;;;;;;59.03;8.23;;;;;;;;;;6267573;22;20420;-60
2022/12/21 09:14:25;;;;;;;54.20;9.10;;;;;;;;;;6269079;22;20019;-61
2022/12/21 09:16:52;;;;;;;56.47;7.63;;;;;;;;;;6269268;22;20078;-59
2022/12/21 09:19:26;;;;;;;62.50;8.75;;;;;;;;;;6268121;22;20030;-60
2022/12/21 09:21:59;;;;;;;69.78;9.50;;;;;;;;;;6266893;22;20074;-47
2022/12/21 09:24:34;;;;;;;76.07;9.00;;;;;;;;;;6269837;22;20059;-49
2022/12/21 09:27:01;;;;;;;68.45;10.23;;;;;;;;;;6268988;22;20034;-47
2022/12/21 09:29:29;;;;;;;63.13;9.00;;;;;;;;;;6270393;22;20662;-49
2022/12/21 09:32:03;;;;;;;64.95;7.75;;;;;;;;;;6269174;22;20024;-48
2022/12/21 09:34:30;;;;;;;50.70;7.18;;;;;;;;;;6269322;22;20024;-47
2022/12/21 09:36:59;;;;;;;63.60;8.77;;;;;;;;;;6268911;22;20108;-62
2022/12/21 09:39:50;;;;;;;66.38;9.07;;;;;;;;;;6269043;22;20115;-47
2022/12/21 09:42:22;;;;;;;74.70;8.45;;;;;;;;;;6268917;22;20019;-47
2022/12/21 09:44:58;;;;;;;62.40;8.48;;;;;;;;;;6268541;22;20051;-47
2022/12/21 09:47:32;;;;;;;65.43;8.65;;;;;;;;;;6268189;22;20027;-47
2022/12/21 09:50:11;;;;;;;67.57;9.43;;;;;;;;;;6267925;22;20034;-48
2022/12/21 09:52:50;;;;;;;78.80;10.05;;;;;;;;;;6268880;22;20477;-51
2022/12/21 09:55:27;;;;;;;64.70;8.73;;;;;;;;;;6270597;22;20102;-63
2022/12/21 09:57:57;;;;;;;61.10;9.07;;;;;;;;;;6270253;22;20511;-62
2022/12/21 10:00:34;;;;;;;55.72;7.43;;;;;;;;;;6271219;22;20019;-62
2022/12/21 10:03:19;;;;;;;61.78;7.80;;;;;;;;;;6269690;22;20110;-63
2022/12/21 10:05:54;;;;;;;78.10;9.63;;;;;;;;;;6270408;22;20027;-62
2022/12/21 10:08:33;;;;;;;67.28;8.18;;;;;;;;;;6270205;22;20027;-62
2022/12/21 10:11:21;;;;;;;55.20;8.18;;;;;;;;;;6268374;22;20728;-62
2022/12/21 10:14:01;;;;;;;63.50;8.43;;;;;;;;;;6270261;22;20090;-63
2022/12/21 10:16:46;;;;;;;56.25;8.30;;;;;;;;;;6271106;22;20399;-52
2022/12/21 10:19:46;;;;;;;58.10;7.97;;;;;;;;;;6270065;22;20015;-55
2022/12/21 10:22:44;;;;;;;61.58;8.90;;;;;;;;;;6270079;22;20455;-52
2022/12/21 10:25:17;;;;;;;70.03;8.65;;;;;;;;;;6269572;22;20035;-57
2022/12/21 10:28:06;;;;;;;60.22;8.80;;;;;;;;;;6269880;22;20485;-54
2022/12/21 10:30:33;;;;;;;62.83;8.50;;;;;;;;;;6269500;22;20469;-61
2022/12/21 10:33:12;;;;;;;60.88;8.27;;;;;;;;;;6269150;22;20024;-61
2022/12/21 10:35:39;;;;;;;49.85;8.02;;;;;;;;;;6271311;22;20051;-60
2022/12/21 10:38:15;;;;;;;66.35;9.65;;;;;;;;;;6268997;22;20099;-60
2022/12/21 10:40:45;;;;;;;71.25;8.73;;;;;;;;;;6270285;22;20027;-58
2022/12/21 10:43:20;;;;;;;75.95;9.10;;;;;;;;;;6268924;22;20066;-59
2022/12/21 10:45:48;;;;;;;59.83;9.65;;;;;;;;;;6269648;22;20089;-59
2022/12/21 10:48:15;;;;;;;77.65;8.93;;;;;;;;;;6269729;22;20023;-60
2022/12/21 10:50:51;;;;;;;78.53;9.50;;;;;;;;;;6271295;22;20026;-62
2022/12/21 10:53:19;;;;;;;73.88;9.18;;;;;;;;;;6269790;22;20051;-61
2022/12/21 10:55:58;;;;;;;69.30;8.57;;;;;;;;;;6270333;22;20055;-60
2022/12/21 10:58:30;;;;;;;55.35;7.22;;;;;;;;;;6270913;22;20079;-60
2022/12/21 11:01:05;;;;;;;61.00;8.98;;;;;;;;;;6269381;22;20102;-61
2022/12/21 11:03:34;;;;;;;62.92;8.75;;;;;;;;;;6268753;22;20022;-62
2022/12/21 11:06:20;;;;;;;63.95;7.72;;;;;;;;;;6269177;22;20057;-61
2022/12/21 11:08:49;;;;;;;52.25;7.78;;;;;;;;;;6270598;22;20020;-61
2022/12/21 11:11:30;;;;;;;50.17;8.10;;;;;;;;;;6269796;22;20059;-60
2022/12/21 11:13:59;;;;;;;50.15;8.45;;;;;;;;;;6270133;22;20570;-60
2022/12/21 11:16:35;;;;;;;47.13;8.25;;;;;;;;;;6268923;22;20030;-58
2022/12/21 11:19:03;;;;;;;74.18;8.68;;;;;;;;;;6268678;22;20022;-61
2022/12/21 11:21:39;;;;;;;53.80;8.50;;;;;;;;;;6269893;22;20368;-61
2022/12/21 11:24:16;;;;;;;48.33;7.45;;;;;;;;;;6268147;22;20475;-61
2022/12/21 11:26:51;;;;;;;59.35;9.00;;;;;;;;;;6269922;22;20102;-64
2022/12/21 11:29:24;;;;;;;65.10;9.23;;;;;;;;;;6270238;22;20054;-62
2022/12/21 11:32:05;;;;;;;69.18;9.30;;;;;;;;;;6268997;22;20130;-61
2022/12/21 11:34:34;;;;;;;50.42;7.35;;;;;;;;;;6269376;22;20047;-62
2022/12/21 11:37:22;;;;;;;54.85;8.05;;;;;;;;;;6269112;22;20098;-61
2022/12/21 11:39:49;;;;;;;59.20;8.73;;;;;;;;;;6269048;22;20423;-61
2022/12/21 11:42:25;;;;;;;52.63;7.93;;;;;;;;;;6270127;22;20024;-62
2022/12/21 11:45:05;;;;;;;62.92;9.20;;;;;;;;;;6268428;22;20316;-47
2022/12/21 11:47:42;;;;;;;55.63;9.05;;;;;;;;;;6269691;22;20043;-64
2022/12/21 11:50:22;;;;;;;57.38;9.77;;;;;;;;;;6269825;22;20483;-64
2022/12/21 11:53:14;;;;;;;59.92;10.10;;;;;;;;;;6267994;22;20051;-64
2022/12/21 11:56:11;;;;;;;54.65;10.10;;;;;;;;;;6269123;22;20102;-64
2022/12/21 11:59:06;;;;;;;60.47;10.55;;;;;;;;;;6269246;22;20349;-64
2022/12/21 12:01:33;;;;;;;58.60;10.10;;;;;;;;;;6269379;22;20087;-64
2022/12/21 12:04:16;;;;;;;70.97;12.52;;;;;;;;;;6267036;22;20568;-64
2022/12/21 12:06:53;;;;;;;51.13;11.50;;;;;;;;;;6270653;22;20069;-62
2022/12/21 12:09:23;;;;;;;50.53;11.20;;;;;;;;;;6269290;22;20118;-62
2022/12/21 12:12:15;;;;;;;60.53;13.52;;;;;;;;;;6270080;22;20020;-62
2022/12/21 12:14:49;;;;;;;57.35;12.90;;;;;;;;;;6270559;22;20094;-61
2022/12/21 12:17:40;;;;;;;50.08;12.55;;;;;;;;;;6268574;22;20102;-61
2022/12/21 12:20:07;;;;;;;54.88;11.55;;;;;;;;;;6270615;22;20019;-61
2022/12/21 12:23:09;;;;;;;63.83;13.85;;;;;;;;;;6269885;22;20031;-62
2022/12/21 12:26:04;;;;;;;63.38;13.45;;;;;;;;;;6267989;22;20059;-60
2022/12/21 12:28:58;;;;;;;61.05;14.18;;;;;;;;;;6270402;22;20098;-60
2022/12/21 12:31:45;;;;;;;65.25;14.73;;;;;;;;;;6270545;22;20065;-60
2022/12/21 12:34:26;;;;;;;56.08;13.48;;;;;;;;;;6268357;22;20058;-60
2022/12/21 12:37:05;;;;;;;68.20;14.90;;;;;;;;;;6270208;22;20054;-60
2022/12/21 12:39:45;;;;;;;51.55;13.80;;;;;;;;;;6269587;22;20697;-53
2022/12/21 12:42:39;;;;;;;56.45;14.57;;;;;;;;;;6268832;22;20028;-61
2022/12/21 12:45:27;;;;;;;59.60;14.45;;;;;;;;;;6269198;22;20065;-49
2022/12/21 12:48:07;;;;;;;52.75;14.05;;;;;;;;;;6267006;22;20028;-47
2022/12/21 12:50:40;;;;;;;58.30;14.30;;;;;;;;;;6269836;22;20023;-50
2022/12/21 12:53:33;;;;;;;48.53;13.38;;;;;;;;;;6268460;22;20106;-49
2022/12/21 12:56:07;;;;;;;53.22;13.85;;;;;;;;;;6267207;22;20496;-49
2022/12/21 12:58:44;;;;;;;53.85;13.18;;;;;;;;;;6269612;22;20357;-58
2022/12/21 13:01:18;;;;;;;60.97;13.77;;;;;;;;;;6242299;22;20034;-61
2022/12/21 13:03:58;;;;;;;70.22;15.68;;;;;;;;;;6270403;22;20027;-61
2022/12/21 13:06:31;;;;;;;71.45;15.00;;;;;;;;;;6270670;22;20405;-61
2022/12/21 13:09:07;;;;;;;64.00;14.32;;;;;;;;;;6269014;22;20122;-61
2022/12/21 13:11:46;;;;;;;59.95;12.68;;;;;;;;;;6269748;22;20023;-61
2022/12/21 13:14:35;;;;;;;57.33;13.90;;;;;;;;;;6270187;22;20047;-62
2022/12/21 13:17:27;;;;;;;61.60;13.50;;;;;;;;;;6268499;22;20020;-50
2022/12/21 13:20:03;;;;;;;70.03;13.85;;;;;;;;;;6270085;22;20027;-64
2022/12/21 13:22:38;;;;;;;52.47;13.30;;;;;;;;;;6267576;22;20085;-64
2022/12/21 13:25:16;;;;;;;58.17;13.88;;;;;;;;;;6267148;22;20028;-64
2022/12/21 13:27:47;;;;;;;62.67;13.95;;;;;;;;;;6270036;22;20019;-64
2022/12/21 13:30:22;;;;;;;54.03;14.02;;;;;;;;;;6271427;22;20075;-64
2022/12/21 13:32:59;;;;;;;60.00;14.63;;;;;;;;;;6269786;22;20081;-64
2022/12/21 13:35:32;;;;;;;63.78;15.43;;;;;;;;;;6270632;22;20028;-46
2022/12/21 13:38:10;;;;;;;66.28;15.57;;;;;;;;;;6270221;22;20047;-49
2022/12/21 13:40:40;;;;;;;73.53;16.20;;;;;;;;;;6272715;22;20120;-47
2022/12/21 13:43:16;;;;;;;68.10;14.40;;;;;;;;;;6270922;22;20444;-47
2022/12/21 13:45:48;;;;;;;73.47;15.73;;;;;;;;;;6271558;22;20055;-48
2022/12/21 13:48:24;;;;;;;77.43;15.77;;;;;;;;;;6270627;22;20548;-46
2022/12/21 13:51:18;;;;;;;84.72;16.92;;;;;;;;;;6272137;22;20031;-49
2022/12/21 13:54:11;;;;;;;88.65;18.65;;;;;;;;;;6270926;22;20030;-61
2022/12/21 13:56:57;;;;;;;81.60;15.40;;;;;;;;;;6271411;22;20410;-62
2022/12/21 14:00:08;;;;;;;80.93;17.88;;;;;;;;;;6271219;22;20034;-63
2022/12/21 14:02:43;;;;;;;84.03;18.48;;;;;;;;;;6244707;22;20015;-62
2022/12/21 14:05:17;;;;;;;78.35;18.20;;;;;;;;;;6270426;22;20085;-62
2022/12/21 14:08:02;;;;;;;88.00;19.25;;;;;;;;;;6268686;22;20062;-63
2022/12/21 14:10:42;;;;;;;85.45;17.25;;;;;;;;;;6270616;22;20030;-63
2022/12/21 14:13:12;;;;;;;91.65;19.60;;;;;;;;;;6269729;22;20023;-48
2022/12/21 14:15:55;;;;;;;108.32;21.00;;;;;;;;;;6270477;22;20020;-61
2022/12/21 14:18:24;;;;;;;89.85;20.83;;;;;;;;;;6269942;22;20052;-62
2022/12/21 14:21:00;;;;;;;93.05;20.45;;;;;;;;;;6269471;22;20022;-61
2022/12/21 14:23:34;;;;;;;94.65;19.88;;;;;;;;;;6270224;22;20020;-61
2022/12/21 14:26:30;;;;;;;85.43;19.38;;;;;;;;;;6271104;22;20027;-61
2022/12/21 14:29:02;;;;;;;120.35;20.88;;;;;;;;;;6270224;22;20098;-61
2022/12/21 14:31:36;;;;;;;89.43;20.65;;;;;;;;;;6271605;22;20019;-60
2022/12/21 14:34:08;;;;;;;93.20;19.55;;;;;;;;;;6271043;22;20464;-50
2022/12/21 14:37:04;;;;;;;91.95;20.77;;;;;;;;;;6270240;22;20020;-52
2022/12/21 14:39:44;;;;;;;104.50;20.63;;;;;;;;;;6269752;22;20019;-50
2022/12/21 14:42:30;;;;;;;103.05;20.52;;;;;;;;;;6269945;22;20026;-54
2022/12/21 14:45:10;;;;;;;98.80;19.88;;;;;;;;;;6270479;22;20094;-56
2022/12/21 14:47:49;;;;;;;112.00;21.40;;;;;;;;;;6271802;22;20496;-54
2022/12/21 14:50:23;;;;;;;103.63;18.63;;;;;;;;;;6270917;22;20046;-60
2022/12/21 14:53:00;;;;;;;96.32;18.58;;;;;;;;;;6270174;22;20020;-51
2022/12/21 14:55:35;;;;;;;112.03;19.60;;;;;;;;;;6271417;22;20077;-49
2022/12/21 14:58:09;;;;;;;120.30;21.92;;;;;;;;;;6268351;22;20035;-47
2022/12/21 15:01:01;;;;;;;96.40;21.30;;;;;;;;;;6270102;22;20094;-49
2022/12/21 15:03:43;;;;;;;106.28;21.40;;;;;;;;;;6270416;22;20016;-47
2022/12/21 15:06:34;;;;;;;117.47;21.98;;;;;;;;;;6269940;22;20062;-61
2022/12/21 15:09:20;;;;;;;109.97;19.90;;;;;;;;;;6269734;22;20114;-60
2022/12/21 15:12:10;;;;;;;126.72;20.20;;;;;;;;;;6269712;22;20098;-63
2022/12/21 15:14:42;;;;;;;134.07;23.02;;;;;;;;;;6271024;22;20096;-62
2022/12/21 15:17:17;;;;;;;168.68;23.92;;;;;;;;;;6270004;22;20067;-63
2022/12/21 15:19:45;;;;;;;99.30;20.10;;;;;;;;;;6270502;22;20019;-62
2022/12/21 15:22:40;;;;;;;135.50;24.20;;;;;;;;;;6269190;22;20050;-63
2022/12/21 15:25:18;;;;;;;122.50;23.98;;;;;;;;;;6270623;22;20095;-63
2022/12/21 15:28:03;;;;;;;122.95;23.15;;;;;;;;;;6271418;22;20055;-46